sensor_id;sensor_type;location;lat;lon;timestamp;pressure;altitude;pressure_sealevel;temperature;humidity
77869;BME280;67231;59.144;37.934;2023-03-31T04:17:28;99728.00;;;-0.90;66.45
77869;BME280;67231;59.144;37.934;2023-03-31T04:20:10;99720.75;;;-0.99;66.33
77869;BME280;67231;59.144;37.934;2023-03-31T04:22:38;99717.72;;;-1.07;66.97
77869;BME280;67231;59.144;37.934;2023-03-31T04:25:09;99725.34;;;-1.04;67.65
77869;BME280;67231;59.144;37.934;2023-03-31T04:27:46;99730.50;;;1.55;63.96
77869;BME280;67231;59.144;37.934;2023-03-31T04:30:16;99730.53;;;4.46;57.65
77869;BME280;67231;59.144;37.934;2023-03-31T04:32:53;99736.06;;;6.57;54.12
77869;BME280;67231;59.144;37.934;2023-03-31T04:35:21;99722.25;;;8.01;52.07
77869;BME280;67231;59.144;37.934;2023-03-31T04:37:51;99728.00;;;8.90;50.90
77869;BME280;67231;59.144;37.934;2023-03-31T04:40:24;99730.50;;;9.81;51.98
77869;BME280;67231;59.144;37.934;2023-03-31T04:42:50;99729.53;;;10.35;51.26
77869;BME280;67231;59.144;37.934;2023-03-31T04:45:17;99732.41;;;10.92;50.60
77869;BME280;67231;59.144;37.934;2023-03-31T04:47:43;99734.19;;;11.51;49.30
77869;BME280;67231;59.144;37.934;2023-03-31T04:50:09;99729.84;;;12.16;48.38
77869;BME280;67231;59.144;37.934;2023-03-31T04:52:36;99729.41;;;12.52;47.12
77869;BME280;67231;59.144;37.934;2023-03-31T04:55:04;99738.59;;;12.81;45.78
77869;BME280;67231;59.144;37.934;2023-03-31T04:57:30;99740.88;;;12.52;45.66
77869;BME280;67231;59.144;37.934;2023-03-31T04:59:56;99741.72;;;12.53;45.14
77869;BME280;67231;59.144;37.934;2023-03-31T05:02:23;99739.13;;;13.30;43.46
77869;BME280;67231;59.144;37.934;2023-03-31T05:04:49;99745.06;;;13.18;42.85
77869;BME280;67231;59.144;37.934;2023-03-31T05:07:17;99746.63;;;12.72;42.92
77869;BME280;67231;59.144;37.934;2023-03-31T05:09:44;99749.44;;;14.03;40.77
77869;BME280;67231;59.144;37.934;2023-03-31T05:12:11;99749.66;;;14.76;39.60
77869;BME280;67231;59.144;37.934;2023-03-31T05:14:37;99748.53;;;13.50;39.62
77869;BME280;67231;59.144;37.934;2023-03-31T05:17:04;99747.41;;;14.05;39.03
77869;BME280;67231;59.144;37.934;2023-03-31T05:19:30;99751.81;;;13.98;38.68
77869;BME280;67231;59.144;37.934;2023-03-31T05:21:57;99753.91;;;14.26;38.03
77869;BME280;67231;59.144;37.934;2023-03-31T05:24:23;99752.78;;;14.50;37.19
77869;BME280;67231;59.144;37.934;2023-03-31T05:26:50;99756.25;;;13.13;38.20
77869;BME280;67231;59.144;37.934;2023-03-31T05:29:19;99757.28;;;13.81;37.82
77869;BME280;67231;59.144;37.934;2023-03-31T05:31:46;99758.28;;;15.08;36.22
77869;BME280;67231;59.144;37.934;2023-03-31T05:34:13;99753.47;;;15.61;35.59
77869;BME280;67231;59.144;37.934;2023-03-31T05:36:40;99757.72;;;16.27;34.67
77869;BME280;67231;59.144;37.934;2023-03-31T05:39:08;99760.31;;;16.84;34.17
77869;BME280;67231;59.144;37.934;2023-03-31T05:41:34;99759.09;;;17.61;33.32
77869;BME280;67231;59.144;37.934;2023-03-31T05:44:01;99759.16;;;17.95;32.87
77869;BME280;67231;59.144;37.934;2023-03-31T05:46:27;99761.13;;;17.46;32.72
77869;BME280;67231;59.144;37.934;2023-03-31T05:48:53;99768.44;;;17.92;32.24
77869;BME280;67231;59.144;37.934;2023-03-31T05:51:21;99761.84;;;18.08;32.21
77869;BME280;67231;59.144;37.934;2023-03-31T05:53:48;99763.88;;;19.05;30.88
77869;BME280;67231;59.144;37.934;2023-03-31T05:56:14;99766.09;;;19.53;29.66
77869;BME280;67231;59.144;37.934;2023-03-31T05:58:41;99759.19;;;19.32;29.72
77869;BME280;67231;59.144;37.934;2023-03-31T06:01:09;99757.13;;;18.89;30.05
77869;BME280;67231;59.144;37.934;2023-03-31T06:03:38;99766.16;;;17.69;30.62
77869;BME280;67231;59.144;37.934;2023-03-31T06:06:09;99764.59;;;16.71;31.40
77869;BME280;67231;59.144;37.934;2023-03-31T06:08:35;99760.31;;;16.14;32.34
77869;BME280;67231;59.144;37.934;2023-03-31T06:11:07;99759.78;;;16.60;31.42
77869;BME280;67231;59.144;37.934;2023-03-31T06:13:34;99755.41;;;17.76;30.21
77869;BME280;67231;59.144;37.934;2023-03-31T06:16:01;99751.47;;;18.18;29.47
77869;BME280;67231;59.144;37.934;2023-03-31T06:18:29;99743.03;;;18.28;29.31
77869;BME280;67231;59.144;37.934;2023-03-31T06:20:56;99747.13;;;18.37;29.04
77869;BME280;67231;59.144;37.934;2023-03-31T06:23:23;99749.75;;;18.64;29.43
77869;BME280;67231;59.144;37.934;2023-03-31T06:25:50;99746.91;;;19.43;28.11
77869;BME280;67231;59.144;37.934;2023-03-31T06:28:16;99752.25;;;19.81;27.31
77869;BME280;67231;59.144;37.934;2023-03-31T06:30:42;99748.44;;;20.14;27.02
77869;BME280;67231;59.144;37.934;2023-03-31T06:33:08;99749.69;;;20.37;26.43
77869;BME280;67231;59.144;37.934;2023-03-31T06:35:38;99743.16;;;20.45;26.26
77869;BME280;67231;59.144;37.934;2023-03-31T06:38:05;99746.72;;;20.64;26.16
77869;BME280;67231;59.144;37.934;2023-03-31T06:40:31;99744.06;;;20.94;26.21
77869;BME280;67231;59.144;37.934;2023-03-31T06:42:57;99738.88;;;21.11;25.88
77869;BME280;67231;59.144;37.934;2023-03-31T06:45:23;99742.28;;;20.88;25.91
77869;BME280;67231;59.144;37.934;2023-03-31T06:47:50;99740.06;;;20.66;25.95
77869;BME280;67231;59.144;37.934;2023-03-31T06:50:16;99737.31;;;20.48;25.64
77869;BME280;67231;59.144;37.934;2023-03-31T06:52:42;99727.28;;;20.92;25.13
77869;BME280;67231;59.144;37.934;2023-03-31T06:55:09;99726.25;;;20.74;25.42
77869;BME280;67231;59.144;37.934;2023-03-31T06:57:35;99732.72;;;21.04;25.32
77869;BME280;67231;59.144;37.934;2023-03-31T07:00:03;99739.41;;;21.32;24.87
77869;BME280;67231;59.144;37.934;2023-03-31T07:02:30;99744.09;;;21.55;24.95
77869;BME280;67231;59.144;37.934;2023-03-31T07:04:56;99745.41;;;21.76;24.18
77869;BME280;67231;59.144;37.934;2023-03-31T07:07:22;99741.28;;;21.73;23.70
77869;BME280;67231;59.144;37.934;2023-03-31T07:09:49;99738.56;;;21.31;24.09
77869;BME280;67231;59.144;37.934;2023-03-31T07:12:15;99740.34;;;21.25;24.55
77869;BME280;67231;59.144;37.934;2023-03-31T07:14:41;99735.56;;;21.39;24.21
77869;BME280;67231;59.144;37.934;2023-03-31T07:17:07;99728.66;;;21.43;24.45
77869;BME280;67231;59.144;37.934;2023-03-31T07:19:33;99726.53;;;21.45;24.33
77869;BME280;67231;59.144;37.934;2023-03-31T07:22:02;99723.84;;;20.85;24.75
77869;BME280;67231;59.144;37.934;2023-03-31T07:24:29;99718.09;;;21.42;23.92
77869;BME280;67231;59.144;37.934;2023-03-31T07:26:55;99718.88;;;22.08;22.86
77869;BME280;67231;59.144;37.934;2023-03-31T07:29:22;99717.31;;;22.60;22.52
77869;BME280;67231;59.144;37.934;2023-03-31T07:31:48;99714.59;;;22.60;22.37
77869;BME280;67231;59.144;37.934;2023-03-31T07:34:14;99719.09;;;22.42;22.67
77869;BME280;67231;59.144;37.934;2023-03-31T07:36:40;99721.72;;;22.37;22.86
77869;BME280;67231;59.144;37.934;2023-03-31T07:39:06;99719.22;;;22.12;22.79
77869;BME280;67231;59.144;37.934;2023-03-31T07:41:33;99726.50;;;21.76;23.06
77869;BME280;67231;59.144;37.934;2023-03-31T07:43:59;99730.03;;;21.76;22.88
77869;BME280;67231;59.144;37.934;2023-03-31T07:46:27;99717.31;;;21.65;22.58
77869;BME280;67231;59.144;37.934;2023-03-31T07:48:55;99717.41;;;20.86;23.20
77869;BME280;67231;59.144;37.934;2023-03-31T07:51:24;99715.06;;;19.97;23.65
77869;BME280;67231;59.144;37.934;2023-03-31T07:53:50;99714.22;;;19.64;25.92
77869;BME280;67231;59.144;37.934;2023-03-31T07:56:19;99711.81;;;19.88;24.49
77869;BME280;67231;59.144;37.934;2023-03-31T07:58:46;99713.22;;;20.53;23.22
77869;BME280;67231;59.144;37.934;2023-03-31T08:01:17;99706.31;;;21.36;22.16
77869;BME280;67231;59.144;37.934;2023-03-31T08:03:45;99709.53;;;21.03;22.37
77869;BME280;67231;59.144;37.934;2023-03-31T08:06:17;99703.91;;;20.12;23.21
77869;BME280;67231;59.144;37.934;2023-03-31T08:08:44;99693.38;;;19.85;23.25
77869;BME280;67231;59.144;37.934;2023-03-31T08:11:11;99684.94;;;19.81;23.09
77869;BME280;67231;59.144;37.934;2023-03-31T08:13:37;99682.50;;;19.48;23.88
77869;BME280;67231;59.144;37.934;2023-03-31T08:16:03;99688.53;;;19.43;23.98
77869;BME280;67231;59.144;37.934;2023-03-31T08:18:29;99684.97;;;19.50;23.67
77869;BME280;67231;59.144;37.934;2023-03-31T08:20:55;99680.84;;;19.47;23.48
77869;BME280;67231;59.144;37.934;2023-03-31T08:23:22;99685.19;;;19.16;23.72
77869;BME280;67231;59.144;37.934;2023-03-31T08:25:48;99673.72;;;18.96;23.99
77869;BME280;67231;59.144;37.934;2023-03-31T08:28:14;99670.88;;;18.38;24.50
77869;BME280;67231;59.144;37.934;2023-03-31T08:30:40;99681.72;;;18.64;23.53
77869;BME280;67231;59.144;37.934;2023-03-31T08:33:07;99665.22;;;18.53;23.39
77869;BME280;67231;59.144;37.934;2023-03-31T08:35:34;99659.81;;;17.68;23.79
77869;BME280;67231;59.144;37.934;2023-03-31T08:38:01;99661.81;;;16.86;24.49
77869;BME280;67231;59.144;37.934;2023-03-31T08:40:28;99659.28;;;15.16;25.75
77869;BME280;67231;59.144;37.934;2023-03-31T08:43:09;99654.44;;;13.64;26.89
77869;BME280;67231;59.144;37.934;2023-03-31T08:45:41;99652.53;;;12.57;28.67
77869;BME280;67231;59.144;37.934;2023-03-31T08:48:23;99641.34;;;11.58;29.10
77869;BME280;67231;59.144;37.934;2023-03-31T08:51:04;99647.56;;;10.50;30.60
77869;BME280;67231;59.144;37.934;2023-03-31T08:53:38;99643.63;;;10.28;31.16
77869;BME280;67231;59.144;37.934;2023-03-31T08:56:14;99640.22;;;10.09;31.57
77869;BME280;67231;59.144;37.934;2023-03-31T08:58:44;99642.47;;;9.96;31.90
77869;BME280;67231;59.144;37.934;2023-03-31T09:07:06;99638.50;;;9.03;33.58
77869;BME280;67231;59.144;37.934;2023-03-31T09:12:54;99631.75;;;8.55;33.57
77869;BME280;67231;59.144;37.934;2023-03-31T09:15:38;99623.31;;;8.42;33.37
77869;BME280;67231;59.144;37.934;2023-03-31T09:18:26;99619.66;;;8.52;34.08
77869;BME280;67231;59.144;37.934;2023-03-31T09:21:01;99619.78;;;8.23;34.31
77869;BME280;67231;59.144;37.934;2023-03-31T09:23:37;99617.56;;;8.28;34.47
77869;BME280;67231;59.144;37.934;2023-03-31T09:26:22;99599.81;;;8.38;34.31
77869;BME280;67231;59.144;37.934;2023-03-31T09:28:53;99594.75;;;7.99;34.55
77869;BME280;67231;59.144;37.934;2023-03-31T09:31:22;99597.81;;;7.47;36.00
77869;BME280;67231;59.144;37.934;2023-03-31T09:33:52;99600.25;;;7.69;35.63
77869;BME280;67231;59.144;37.934;2023-03-31T09:36:20;99594.03;;;7.97;34.79
77869;BME280;67231;59.144;37.934;2023-03-31T09:38:49;99598.53;;;8.15;34.65
77869;BME280;67231;59.144;37.934;2023-03-31T09:41:17;99595.91;;;8.15;34.61
77869;BME280;67231;59.144;37.934;2023-03-31T09:43:46;99593.34;;;8.23;34.36
77869;BME280;67231;59.144;37.934;2023-03-31T09:46:29;99594.34;;;8.22;33.60
77869;BME280;67231;59.144;37.934;2023-03-31T09:49:10;99598.97;;;7.82;34.95
77869;BME280;67231;59.144;37.934;2023-03-31T09:51:40;99593.53;;;7.84;34.58
77869;BME280;67231;59.144;37.934;2023-03-31T09:54:22;99588.75;;;7.97;34.32
77869;BME280;67231;59.144;37.934;2023-03-31T09:56:51;99586.84;;;7.90;35.19
77869;BME280;67231;59.144;37.934;2023-03-31T09:59:21;99581.88;;;7.87;34.50
77869;BME280;67231;59.144;37.934;2023-03-31T10:01:52;99585.53;;;8.03;35.02
77869;BME280;67231;59.144;37.934;2023-03-31T10:04:26;99576.72;;;7.85;34.52
77869;BME280;67231;59.144;37.934;2023-03-31T10:06:53;99576.91;;;7.74;34.67
77869;BME280;67231;59.144;37.934;2023-03-31T10:09:25;99569.69;;;7.66;34.95
77869;BME280;67231;59.144;37.934;2023-03-31T10:11:55;99565.09;;;7.68;35.06
77869;BME280;67231;59.144;37.934;2023-03-31T10:14:32;99563.38;;;7.77;35.47
77869;BME280;67231;59.144;37.934;2023-03-31T10:17:04;99576.53;;;7.59;35.05
77869;BME280;67231;59.144;37.934;2023-03-31T10:19:34;99568.84;;;7.65;34.67
77869;BME280;67231;59.144;37.934;2023-03-31T10:22:15;99568.56;;;7.69;34.83
77869;BME280;67231;59.144;37.934;2023-03-31T10:24:44;99562.16;;;7.71;35.01
77869;BME280;67231;59.144;37.934;2023-03-31T10:27:23;99565.63;;;7.72;35.01
77869;BME280;67231;59.144;37.934;2023-03-31T10:29:52;99571.22;;;7.69;35.35
77869;BME280;67231;59.144;37.934;2023-03-31T10:32:33;99574.28;;;7.74;35.81
77869;BME280;67231;59.144;37.934;2023-03-31T10:35:06;99563.69;;;7.74;35.60
77869;BME280;67231;59.144;37.934;2023-03-31T10:37:34;99557.03;;;7.70;35.83
77869;BME280;67231;59.144;37.934;2023-03-31T10:40:13;99569.44;;;7.59;35.66
77869;BME280;67231;59.144;37.934;2023-03-31T10:42:44;99566.06;;;7.29;36.83
77869;BME280;67231;59.144;37.934;2023-03-31T10:45:26;99567.59;;;7.32;37.39
77869;BME280;67231;59.144;37.934;2023-03-31T10:47:56;99567.88;;;7.19;36.77
77869;BME280;67231;59.144;37.934;2023-03-31T10:50:34;99556.50;;;6.99;37.55
77869;BME280;67231;59.144;37.934;2023-03-31T10:53:09;99546.25;;;6.96;38.12
77869;BME280;67231;59.144;37.934;2023-03-31T10:58:56;99551.25;;;6.99;38.56
77869;BME280;67231;59.144;37.934;2023-03-31T11:04:28;99532.09;;;6.87;38.39
77869;BME280;67231;59.144;37.934;2023-03-31T11:12:42;99539.88;;;6.79;38.13
77869;BME280;67231;59.144;37.934;2023-03-31T11:15:50;99530.16;;;6.80;38.29
77869;BME280;67231;59.144;37.934;2023-03-31T11:21:30;99521.72;;;6.76;38.38
77869;BME280;67231;59.144;37.934;2023-03-31T11:29:56;99516.84;;;6.62;38.11
77869;BME280;67231;59.144;37.934;2023-03-31T11:32:53;99514.91;;;6.44;37.62
77869;BME280;67231;59.144;37.934;2023-03-31T11:41:13;99495.06;;;6.20;38.05
77869;BME280;67231;59.144;37.934;2023-03-31T11:43:54;99496.72;;;6.31;37.75
77869;BME280;67231;59.144;37.934;2023-03-31T11:46:25;99497.97;;;6.37;37.74
77869;BME280;67231;59.144;37.934;2023-03-31T11:53:53;99485.66;;;6.47;37.63
77869;BME280;67231;59.144;37.934;2023-03-31T11:56:22;99487.28;;;6.48;36.67
77869;BME280;67231;59.144;37.934;2023-03-31T11:58:56;99478.84;;;6.45;37.08
77869;BME280;67231;59.144;37.934;2023-03-31T12:01:40;99477.59;;;6.39;36.81
77869;BME280;67231;59.144;37.934;2023-03-31T12:04:36;99475.25;;;6.36;36.92
77869;BME280;67231;59.144;37.934;2023-03-31T12:07:27;99467.88;;;6.30;37.37
77869;BME280;67231;59.144;37.934;2023-03-31T12:10:11;99467.75;;;6.31;37.44
77869;BME280;67231;59.144;37.934;2023-03-31T12:12:48;99463.84;;;6.35;37.72
77869;BME280;67231;59.144;37.934;2023-03-31T12:15:39;99461.78;;;6.39;37.73
77869;BME280;67231;59.144;37.934;2023-03-31T12:18:21;99456.81;;;6.36;37.62
77869;BME280;67231;59.144;37.934;2023-03-31T12:21:01;99467.47;;;6.34;37.91
77869;BME280;67231;59.144;37.934;2023-03-31T12:23:32;99450.81;;;6.34;36.63
77869;BME280;67231;59.144;37.934;2023-03-31T12:26:19;99448.03;;;6.35;36.82
77869;BME280;67231;59.144;37.934;2023-03-31T12:28:52;99437.94;;;6.31;37.83
77869;BME280;67231;59.144;37.934;2023-03-31T12:31:22;99448.03;;;6.35;37.57
77869;BME280;67231;59.144;37.934;2023-03-31T12:33:58;99431.69;;;6.32;37.27
77869;BME280;67231;59.144;37.934;2023-03-31T12:39:34;99430.59;;;6.25;37.42
77869;BME280;67231;59.144;37.934;2023-03-31T12:45:30;99420.34;;;6.22;37.32
77869;BME280;67231;59.144;37.934;2023-03-31T12:55:48;99400.22;;;6.20;35.89
77869;BME280;67231;59.144;37.934;2023-03-31T13:03:45;99394.53;;;6.25;35.36
77869;BME280;67231;59.144;37.934;2023-03-31T13:09:01;99395.22;;;6.27;36.58
77869;BME280;67231;59.144;37.934;2023-03-31T13:11:36;99386.50;;;6.27;36.15
77869;BME280;67231;59.144;37.934;2023-03-31T13:14:23;99377.91;;;6.25;35.33
77869;BME280;67231;59.144;37.934;2023-03-31T13:16:53;99380.09;;;6.19;35.60
77869;BME280;67231;59.144;37.934;2023-03-31T13:19:39;99372.38;;;6.18;35.13
77869;BME280;67231;59.144;37.934;2023-03-31T13:22:06;99371.38;;;6.19;35.73
77869;BME280;67231;59.144;37.934;2023-03-31T13:24:52;99366.94;;;6.19;35.50
77869;BME280;67231;59.144;37.934;2023-03-31T13:27:48;99363.63;;;6.17;35.22
77869;BME280;67231;59.144;37.934;2023-03-31T13:33:35;99365.84;;;6.12;34.79
77869;BME280;67231;59.144;37.934;2023-03-31T13:47:39;99352.41;;;6.15;33.49
77869;BME280;67231;59.144;37.934;2023-03-31T13:55:59;99342.97;;;6.03;33.73
77869;BME280;67231;59.144;37.934;2023-03-31T14:06:53;99329.13;;;6.01;33.74
77869;BME280;67231;59.144;37.934;2023-03-31T14:09:28;99325.53;;;6.02;33.24
77869;BME280;67231;59.144;37.934;2023-03-31T14:12:01;99317.44;;;5.94;33.46
77869;BME280;67231;59.144;37.934;2023-03-31T14:14:43;99328.69;;;5.96;33.42
77869;BME280;67231;59.144;37.934;2023-03-31T14:17:10;99325.50;;;5.92;33.56
77869;BME280;67231;59.144;37.934;2023-03-31T14:22:59;99318.16;;;5.86;33.04
77869;BME280;67231;59.144;37.934;2023-03-31T14:31:32;99318.56;;;5.81;33.48
77869;BME280;67231;59.144;37.934;2023-03-31T14:37:00;99305.81;;;5.77;33.47
77869;BME280;67231;59.144;37.934;2023-03-31T14:39:35;99304.56;;;5.71;33.86
77869;BME280;67231;59.144;37.934;2023-03-31T14:42:04;99296.94;;;5.68;33.97
77869;BME280;67231;59.144;37.934;2023-03-31T14:44:33;99295.56;;;5.64;33.70
77869;BME280;67231;59.144;37.934;2023-03-31T14:46:59;99294.03;;;5.61;33.21
77869;BME280;67231;59.144;37.934;2023-03-31T14:49:35;99289.03;;;5.58;33.62
77869;BME280;67231;59.144;37.934;2023-03-31T14:52:20;99290.84;;;5.58;32.51
77869;BME280;67231;59.144;37.934;2023-03-31T14:54:51;99290.31;;;5.54;32.94
77869;BME280;67231;59.144;37.934;2023-03-31T14:57:19;99297.66;;;5.51;32.42
77869;BME280;67231;59.144;37.934;2023-03-31T14:59:50;99289.03;;;5.48;32.44
77869;BME280;67231;59.144;37.934;2023-03-31T15:02:28;99291.13;;;5.45;32.53
77869;BME280;67231;59.144;37.934;2023-03-31T15:04:56;99289.88;;;5.39;32.75
77869;BME280;67231;59.144;37.934;2023-03-31T15:07:23;99287.81;;;5.33;32.66
77869;BME280;67231;59.144;37.934;2023-03-31T15:09:50;99281.81;;;5.31;32.82
77869;BME280;67231;59.144;37.934;2023-03-31T15:12:18;99280.31;;;5.28;32.53
77869;BME280;67231;59.144;37.934;2023-03-31T15:14:48;99272.97;;;5.22;32.19
77869;BME280;67231;59.144;37.934;2023-03-31T15:17:24;99275.03;;;5.19;32.87
77869;BME280;67231;59.144;37.934;2023-03-31T15:19:54;99283.06;;;5.17;33.49
77869;BME280;67231;59.144;37.934;2023-03-31T15:22:23;99283.75;;;5.09;32.89
77869;BME280;67231;59.144;37.934;2023-03-31T15:24:51;99272.81;;;5.04;32.78
77869;BME280;67231;59.144;37.934;2023-03-31T15:27:57;99269.03;;;4.97;33.08
77869;BME280;67231;59.144;37.934;2023-03-31T15:30:18;99275.09;;;4.88;33.62
77869;BME280;67231;59.144;37.934;2023-03-31T15:32:46;99271.47;;;4.79;33.91
77869;BME280;67231;59.144;37.934;2023-03-31T15:35:29;99277.28;;;4.73;34.50
77869;BME280;67231;59.144;37.934;2023-03-31T15:37:57;99272.41;;;4.68;34.54
77869;BME280;67231;59.144;37.934;2023-03-31T15:40:34;99268.41;;;4.64;34.21
77869;BME280;67231;59.144;37.934;2023-03-31T15:43:08;99262.13;;;4.55;34.35
77869;BME280;67231;59.144;37.934;2023-03-31T15:45:52;99262.38;;;4.52;34.22
77869;BME280;67231;59.144;37.934;2023-03-31T15:48:33;99265.28;;;4.49;34.50
77869;BME280;67231;59.144;37.934;2023-03-31T15:51:04;99265.84;;;4.43;35.03
77869;BME280;67231;59.144;37.934;2023-03-31T15:53:35;99263.59;;;4.38;35.20
77869;BME280;67231;59.144;37.934;2023-03-31T15:56:03;99260.97;;;4.38;35.07
77869;BME280;67231;59.144;37.934;2023-03-31T15:58:53;99264.81;;;4.34;34.75
77869;BME280;67231;59.144;37.934;2023-03-31T16:01:22;99270.84;;;4.25;35.33
77869;BME280;67231;59.144;37.934;2023-03-31T16:03:51;99265.16;;;4.20;35.09
77869;BME280;67231;59.144;37.934;2023-03-31T16:11:34;99271.03;;;4.12;35.45
77869;BME280;67231;59.144;37.934;2023-03-31T16:14:07;99281.22;;;4.06;35.70
77869;BME280;67231;59.144;37.934;2023-03-31T16:16:36;99273.75;;;4.01;35.82
77869;BME280;67231;59.144;37.934;2023-03-31T16:19:08;99275.91;;;3.96;36.08
77869;BME280;67231;59.144;37.934;2023-03-31T16:21:47;99280.84;;;3.89;35.79
77869;BME280;67231;59.144;37.934;2023-03-31T16:24:28;99271.38;;;3.77;36.47
77869;BME280;67231;59.144;37.934;2023-03-31T16:27:03;99279.41;;;3.64;36.80
77869;BME280;67231;59.144;37.934;2023-03-31T16:29:32;99269.72;;;3.55;37.03
77869;BME280;67231;59.144;37.934;2023-03-31T16:32:28;99277.75;;;3.42;37.32
77869;BME280;67231;59.144;37.934;2023-03-31T16:34:57;99273.81;;;3.36;37.64
77869;BME280;67231;59.144;37.934;2023-03-31T16:37:24;99272.00;;;3.37;37.43
77869;BME280;67231;59.144;37.934;2023-03-31T16:39:51;99263.91;;;3.40;37.33
77869;BME280;67231;59.144;37.934;2023-03-31T16:42:18;99261.03;;;3.43;37.31
77869;BME280;67231;59.144;37.934;2023-03-31T16:44:45;99271.97;;;3.48;37.35
77869;BME280;67231;59.144;37.934;2023-03-31T16:47:12;99263.41;;;3.46;37.63
77869;BME280;67231;59.144;37.934;2023-03-31T16:49:38;99266.97;;;3.45;37.68
77869;BME280;67231;59.144;37.934;2023-03-31T16:52:05;99253.50;;;3.50;37.63
77869;BME280;67231;59.144;37.934;2023-03-31T16:54:34;99257.91;;;3.49;38.11
77869;BME280;67231;59.144;37.934;2023-03-31T16:57:00;99252.09;;;3.45;37.96
77869;BME280;67231;59.144;37.934;2023-03-31T16:59:28;99256.75;;;3.42;38.54
77869;BME280;67231;59.144;37.934;2023-03-31T17:01:54;99256.53;;;3.34;39.99
77869;BME280;67231;59.144;37.934;2023-03-31T17:04:20;99247.75;;;3.23;40.27
77869;BME280;67231;59.144;37.934;2023-03-31T17:06:48;99246.25;;;3.09;41.63
77869;BME280;67231;59.144;37.934;2023-03-31T17:09:14;99242.81;;;2.98;42.92
77869;BME280;67231;59.144;37.934;2023-03-31T17:11:40;99242.84;;;2.86;43.23
77869;BME280;67231;59.144;37.934;2023-03-31T17:14:07;99241.94;;;2.76;43.96
77869;BME280;67231;59.144;37.934;2023-03-31T17:16:35;99242.78;;;2.65;43.80
77869;BME280;67231;59.144;37.934;2023-03-31T17:19:02;99230.03;;;2.61;44.15
77869;BME280;67231;59.144;37.934;2023-03-31T17:21:28;99235.03;;;2.52;44.79
77869;BME280;67231;59.144;37.934;2023-03-31T17:23:54;99237.31;;;2.46;44.94
77869;BME280;67231;59.144;37.934;2023-03-31T17:26:22;99235.06;;;2.41;44.94
77869;BME280;67231;59.144;37.934;2023-03-31T17:28:49;99244.09;;;2.37;44.60
77869;BME280;67231;59.144;37.934;2023-03-31T17:31:18;99247.06;;;2.32;44.00
77869;BME280;67231;59.144;37.934;2023-03-31T17:33:45;99251.22;;;2.35;43.52
77869;BME280;67231;59.144;37.934;2023-03-31T17:36:11;99249.78;;;2.42;43.25
77869;BME280;67231;59.144;37.934;2023-03-31T17:38:38;99250.75;;;2.52;43.04
77869;BME280;67231;59.144;37.934;2023-03-31T17:41:06;99245.75;;;2.61;43.39
77869;BME280;67231;59.144;37.934;2023-03-31T17:43:33;99247.31;;;2.63;43.47
77869;BME280;67231;59.144;37.934;2023-03-31T17:46:04;99249.94;;;2.63;43.88
77869;BME280;67231;59.144;37.934;2023-03-31T17:48:33;99248.94;;;2.64;44.56
77869;BME280;67231;59.144;37.934;2023-03-31T17:51:07;99247.44;;;2.62;45.17
77869;BME280;67231;59.144;37.934;2023-03-31T17:53:34;99249.53;;;2.57;44.65
77869;BME280;67231;59.144;37.934;2023-03-31T17:56:02;99256.22;;;2.49;45.57
77869;BME280;67231;59.144;37.934;2023-03-31T17:58:29;99243.38;;;2.46;45.58
77869;BME280;67231;59.144;37.934;2023-03-31T18:00:56;99249.78;;;2.42;45.81
77869;BME280;67231;59.144;37.934;2023-03-31T18:03:22;99243.84;;;2.40;46.94
77869;BME280;67231;59.144;37.934;2023-03-31T18:05:48;99245.53;;;2.41;47.29
77869;BME280;67231;59.144;37.934;2023-03-31T18:08:14;99240.28;;;2.41;47.56
77869;BME280;67231;59.144;37.934;2023-03-31T18:10:40;99236.09;;;2.39;48.42
77869;BME280;67231;59.144;37.934;2023-03-31T18:13:07;99234.59;;;2.36;48.39
77869;BME280;67231;59.144;37.934;2023-03-31T18:15:34;99239.19;;;2.32;48.76
77869;BME280;67231;59.144;37.934;2023-03-31T18:18:01;99237.66;;;2.30;49.50
77869;BME280;67231;59.144;37.934;2023-03-31T18:20:28;99234.31;;;2.28;49.63
77869;BME280;67231;59.144;37.934;2023-03-31T18:22:54;99228.25;;;2.27;50.20
77869;BME280;67231;59.144;37.934;2023-03-31T18:25:20;99220.75;;;2.23;50.22
77869;BME280;67231;59.144;37.934;2023-03-31T18:27:46;99226.47;;;2.16;50.81
77869;BME280;67231;59.144;37.934;2023-03-31T18:30:14;99224.34;;;2.10;50.95
77869;BME280;67231;59.144;37.934;2023-03-31T18:32:40;99218.38;;;2.08;51.23
77869;BME280;67231;59.144;37.934;2023-03-31T18:35:07;99212.78;;;2.02;51.52
77869;BME280;67231;59.144;37.934;2023-03-31T18:37:33;99213.97;;;1.97;51.86
77869;BME280;67231;59.144;37.934;2023-03-31T18:39:59;99212.31;;;1.96;52.67
77869;BME280;67231;59.144;37.934;2023-03-31T18:42:26;99218.47;;;1.95;52.88
77869;BME280;67231;59.144;37.934;2023-03-31T18:44:52;99211.84;;;1.91;52.34
77869;BME280;67231;59.144;37.934;2023-03-31T18:47:18;99212.88;;;1.89;52.83
77869;BME280;67231;59.144;37.934;2023-03-31T18:49:45;99202.88;;;1.82;53.00
77869;BME280;67231;59.144;37.934;2023-03-31T18:52:18;99195.50;;;1.76;53.43
77869;BME280;67231;59.144;37.934;2023-03-31T18:54:45;99202.97;;;1.70;53.43
77869;BME280;67231;59.144;37.934;2023-03-31T18:57:11;99195.47;;;1.65;53.67
77869;BME280;67231;59.144;37.934;2023-03-31T18:59:37;99187.16;;;1.60;53.98
77869;BME280;67231;59.144;37.934;2023-03-31T19:02:03;99194.50;;;1.55;54.32
77869;BME280;67231;59.144;37.934;2023-03-31T19:04:29;99188.06;;;1.48;54.73
77869;BME280;67231;59.144;37.934;2023-03-31T19:06:56;99190.53;;;1.38;54.80
77869;BME280;67231;59.144;37.934;2023-03-31T19:09:22;99182.53;;;1.28;54.91
77869;BME280;67231;59.144;37.934;2023-03-31T19:11:51;99178.25;;;1.16;54.90
77869;BME280;67231;59.144;37.934;2023-03-31T19:14:18;99177.94;;;1.07;55.28
77869;BME280;67231;59.144;37.934;2023-03-31T19:16:44;99179.38;;;1.00;55.20
77869;BME280;67231;59.144;37.934;2023-03-31T19:19:10;99175.81;;;1.01;56.16
77869;BME280;67231;59.144;37.934;2023-03-31T19:21:37;99185.19;;;1.04;56.37